Flight Track Log - Related Links

Times and Time Zones

All times are in EDT time to prevent confusion due to time zone crossing. See the FIV521 flight status page for this flight to view local times or setup timezone preferences in your user account.

Time Position Orientation Groundspeed Altitude Reporting Facility
EDT Latitude Longitude Course Direction KTS MPH feet Rate Location/Type
Fri 02:05:53 PM 36.0564 -80.1886 180° South 158 182 6,800  Level Atlanta Center
Fri 02:06:53 PM 35.9983 -80.1992 188° South 199 229 9,300 2,400 Climbing Atlanta Center
Fri 02:07:53 PM 35.9275 -80.2025 182° South 229 264 11,600 1,350 Climbing Atlanta Center
Fri 02:08:53 PM 35.8444 -80.2142 186° South 269 310 12,000 1,050 Climbing Atlanta Center
Fri 02:09:53 PM 35.7594 -80.2333 190° South 301 346 13,700 1,950 Climbing Atlanta Center
Fri 02:10:00 PM 35.5507 -80.2333 180° South  Level FlightAware Approximate
Fri 02:10:53 PM 35.6725 -80.2606 194° South 320 368 15,900  Level Atlanta Center
Fri 02:11:53 PM 35.5836 -80.2875 194° South 314 361 17,900 2,050 Climbing Atlanta Center
Fri 02:12:53 PM 35.5031 -80.3092 192° South 307 353 20,000 2,100 Climbing Atlanta Center
Fri 02:13:53 PM 35.4203 -80.3306 192° South 307 353 22,100 1,850 Climbing Atlanta Center
Fri 02:14:53 PM 35.3356 -80.3550 193° South 307 353 23,700 1,600 Climbing Atlanta Center
Fri 02:15:53 PM 35.2525 -80.3764 192° South 312 359 25,300 1,550 Climbing Atlanta Center
Fri 02:16:53 PM 35.1719 -80.3978 192° South 312 359 26,800 1,500 Climbing Atlanta Center
Fri 02:17:53 PM 35.0872 -80.4244 194° South 319 367 28,300 1,500 Climbing Atlanta Center
Fri 02:18:53 PM 35.0022 -80.4458 192° South 313 360 29,800 783 Climbing Atlanta Center
Fri 02:21:20 PM 34.7986 -80.5061 194° South 319 367 31,000 348 Climbing Jacksonville Center
Fri 02:22:20 PM 34.7031 -80.5289 191° South 339 390 31,000  Level Jacksonville Center
Fri 02:23:19 PM 34.6033 -80.5569 193° South 351 404 31,000 454 Level Jacksonville Center
Fri 02:24:19 PM 34.5078 -80.5819 192° South 358 412 31,900 950 Climbing Jacksonville Center
Fri 02:25:19 PM 34.4125 -80.6072 192° South 358 412 32,900 1,100 Climbing Jacksonville Center
Fri 02:27:19 PM 34.2256 -80.6550 192° South 353 406 35,200 1,267 Climbing Jacksonville Center
Fri 02:28:19 PM 34.1342 -80.6822 194° South 348 400 36,700 1,450 Climbing Jacksonville Center
Fri 02:29:19 PM 34.0469 -80.7069 193° South 337 388 38,100 1,250 Climbing Jacksonville Center
Fri 02:30:19 PM 33.9578 -80.7294 192° South 332 382 39,200 900 Climbing Jacksonville Center
Fri 02:31:19 PM 33.8642 -80.7542 192° South 337 388 39,900 397 Climbing Jacksonville Center
Fri 02:32:20 PM 33.7642 -80.7667 186° South 348 400 40,000 50 Climbing Jacksonville Center
Fri 02:33:20 PM 33.6603 -80.7817 187° South 368 423 40,000  Level Jacksonville Center
Fri 02:34:19 PM 33.5539 -80.7942 186° South 381 438 40,000  Level Jacksonville Center
Fri 02:35:20 PM 33.4478 -80.8067 186° South 386 444 40,000  Level Jacksonville Center
Fri 02:36:19 PM 33.3372 -80.8214 186° South 386 444 40,000  Level Jacksonville Center
Fri 02:37:19 PM 33.2292 -80.8364 187° South 386 444 40,000  Level Jacksonville Center
Fri 02:38:20 PM 33.1228 -80.8489 186° South 386 444 40,000  Level Jacksonville Center
Fri 02:39:19 PM 33.0103 -80.8639 186° South 391 450 40,000  Level Jacksonville Center
Fri 02:40:20 PM 32.9000 -80.8761 185° South 396 456 40,000  Level Jacksonville Center
Fri 02:41:19 PM 32.7894 -80.8886 185° South 396 456 40,000  Level Jacksonville Center
Fri 02:42:20 PM 32.6811 -80.9008 185° South 401 461 40,000  Level Jacksonville Center
Fri 02:43:20 PM 32.5728 -80.9181 188° South 401 461 40,000  Level Jacksonville Center
Fri 02:44:19 PM 32.4625 -80.9303 185° South 401 461 40,000  Level Jacksonville Center
Fri 02:45:19 PM 32.3478 -80.9450 186° South 390 449 40,000  Level Jacksonville Center
Fri 02:46:19 PM 32.2394 -80.9572 185° South 397 457 40,000  Level Jacksonville Center
Fri 02:47:19 PM 32.1394 -80.9667 185° South 402 463 40,000  Level Jacksonville Center
Fri 02:48:20 PM 32.0144 -80.9814 186° South 413 475 40,000  Level Jacksonville Center
Fri 02:49:20 PM 31.9039 -80.9983 187° South 406 467 40,000  Level Jacksonville Center
Fri 02:50:20 PM 31.8039 -81.0103 186° South 406 467 40,000  Level Jacksonville Center
Fri 02:51:19 PM 31.6789 -81.0250 186° South 406 467 40,000  Level Jacksonville Center
Fri 02:52:19 PM 31.5683 -81.0394 186° South 406 467 40,000  Level Jacksonville Center
Fri 02:53:20 PM 31.4664 -81.0511 186° South 411 473 40,000  Level Jacksonville Center
Fri 02:54:20 PM 31.3558 -81.0681 187° South 406 467 40,000  Level Jacksonville Center
Fri 02:55:20 PM 31.2286 -81.0850 186° South 411 473 40,000  Level Jacksonville Center
Fri 02:56:20 PM 31.1142 -81.0969 185° South 411 473 40,000  Level Jacksonville Center
Fri 02:57:20 PM 31.0036 -81.1136 187° South 411 473 40,000 -750 Level Jacksonville Center
Fri 02:58:20 PM 30.8889 -81.1231 184° South 406 467 38,500 -1,800 Descending Jacksonville Center
Fri 02:59:20 PM 30.7744 -81.1372 186° South 411 473 36,400 -2,067 Descending Jacksonville Center
Fri 03:00:19 PM 30.6617 -81.1489 185° South 411 473 34,400 -1,210 Descending Jacksonville Center
Fri 03:01:19 PM 30.5553 -81.1508 181° South 403 464 34,000 -744 Descending Jacksonville Center
Fri 03:02:20 PM 30.4425 -81.1481 179° South 398 458 32,900 -1,339 Descending Jacksonville Center
Fri 03:03:20 PM 30.3256 -81.1456 179° South 408 470 31,300 -1,700 Descending Jacksonville Center
Fri 03:04:20 PM 30.2086 -81.1403 178° South 420 483 29,500 -1,800 Descending Jacksonville Center
Fri 03:05:20 PM 30.0894 -81.1378 179° South 425 489 27,700 -1,815 Descending Jacksonville Center
Fri 03:06:19 PM 29.9683 -81.1350 179° South 425 489 25,900 -1,815 Descending Jacksonville Center
Fri 03:07:19 PM 29.8514 -81.1325 179° South 430 495 24,100 -1,250 Descending Jacksonville Center
Fri 03:08:19 PM 29.7367 -81.1272 178° South 425 489 23,400 -1,300 Descending Jacksonville Center
Fri 03:09:19 PM 29.6217 -81.1247 179° South 419 482 21,500 -1,850 Descending Jacksonville Center
Fri 03:10:19 PM 29.5089 -81.1242 180° South 413 475 19,700 -1,636 Descending Jacksonville Center
Fri 03:11:20 PM 29.4128 -81.1189 177° South 401 461 18,200 -1,587 Descending Jacksonville Center
Fri 03:12:20 PM 29.3064 -81.1136 178° South 395 455 16,500 -1,700 Descending Jacksonville Center
Fri 03:13:20 PM 29.2039 -81.1061 176° South 384 442 14,800 -1,650 Descending Jacksonville Center
Fri 03:14:20 PM 29.1058 -81.1006 177° South 371 427 13,200 -1,400 Descending Jacksonville Center
Fri 03:15:20 PM 29.0181 -81.0928 176° South 348 400 12,000 -600 Descending Jacksonville Center
Fri 03:16:20 PM 28.9364 -81.0800 172° South 318 366 12,000 -950 Level Jacksonville Center
Fri 03:17:20 PM 28.8569 -81.0647 170° South 299 344 10,100 -2,203 Descending Jacksonville Center
Fri 03:17:39 PM 28.8167 -81.0500 162° South 280 322 9,100 -1,976 Descending Orlando TRACON
Fri 03:18:45 PM 28.7667 -81.1000 221° Southwest 232 267 7,300 -1,571 Descending Orlando TRACON
Fri 03:19:45 PM 28.7667 -81.1667 270° West 213 245 5,800 -1,450 Descending Orlando TRACON
Fri 03:20:45 PM 28.7500 -81.2333 254° West 215 247 4,400 -893 Descending Orlando TRACON
Fri 03:21:46 PM 28.7333 -81.3000 254° West 178 205 4,000 -397 Descending Orlando TRACON
Fri 03:22:46 PM 28.7000 -81.3167 204° Southwest 174 200 3,600 -550 Descending Orlando TRACON
Fri 03:23:46 PM 28.6667 -81.3333 204° Southwest 167 192 2,900 -550 Descending Orlando TRACON
Fri 03:24:46 PM 28.6167 -81.3333 180° South 163 188 2,500 -190 Descending Orlando TRACON
Fri 03:25:52 PM 28.5667 -81.3333 180° South 169 194 2,500 -350 Level Orlando TRACON
Fri 03:26:46 PM 28.5333 -81.3333 180° South 151 174 1,800 -842 Descending Orlando TRACON
Fri 03:27:46 PM 28.4833 -81.3333 180° South 124 143 900 -750 Descending Orlando TRACON
Fri 03:28:46 PM 28.4500 -81.3333 180° South 119 137 300 -600 Descending Orlando TRACON

Login

Don't have an account? Register now (free) for customized features, flight alerts, and more!